TimeEDT,TemperatureF,Dew PointF,Humidity,Sea Level PressureIn,VisibilityMPH,Wind Direction,Wind SpeedMPH,Gust SpeedMPH,PrecipitationIn,Events,Conditions,WindDirDegrees,DateUTC
12:55 AM,30.9,19.9,64,29.98,10.0,Calm,Calm,-,N/A,,Clear,0,2013-04-25 04:55:00
1:55 AM,28.9,19.9,69,29.97,10.0,East,3.5,-,N/A,,Clear,80,2013-04-25 05:55:00
2:55 AM,28.9,21.9,75,29.95,10.0,East,3.5,-,N/A,,Mostly Cloudy,100,2013-04-25 06:55:00
3:55 AM,28.9,21.0,72,29.94,10.0,ENE,4.6,-,N/A,,Clear,70,2013-04-25 07:55:00
4:55 AM,28.9,21.9,75,29.93,10.0,ENE,5.8,-,N/A,,Clear,70,2013-04-25 08:55:00
5:55 AM,30.0,23.0,75,29.93,10.0,ENE,3.5,-,N/A,,Mostly Cloudy,70,2013-04-25 09:55:00
6:55 AM,30.0,23.0,75,29.93,10.0,Calm,Calm,-,N/A,,Overcast,0,2013-04-25 10:55:00
7:36 AM,30.9,24.1,76,29.91,1.8,East,4.6,-,0.00,Snow,Light Snow,90,2013-04-25 11:36:00
7:49 AM,30.2,24.8,80,29.91,3.0,East,5.8,-,0.01,Snow,Light Snow,100,2013-04-25 11:49:00
7:55 AM,30.9,26.1,82,29.93,4.0,East,5.8,-,0.01,Snow,Light Snow,90,2013-04-25 11:55:00
8:14 AM,32.0,26.1,79,29.91,1.5,East,6.9,-,0.00,Snow,Light Snow,90,2013-04-25 12:14:00
8:17 AM,30.9,26.1,82,29.91,0.8,East,5.8,-,0.00,Snow,Light Snow,90,2013-04-25 12:17:00
8:25 AM,30.9,27.0,85,29.91,0.5,East,6.9,-,0.02,Fog-Snow,Light Snow,80,2013-04-25 12:25:00
8:32 AM,30.9,28.0,89,29.90,2.5,East,8.1,-,0.02,Snow,Light Snow,80,2013-04-25 12:32:00
8:39 AM,30.9,28.0,89,29.90,5.0,East,6.9,-,0.03,Snow,Light Snow,80,2013-04-25 12:39:00
8:55 AM,30.9,28.0,89,29.92,7.0,ENE,6.9,-,0.03,Snow,Light Snow,70,2013-04-25 12:55:00
9:18 AM,32.0,28.0,85,29.89,2.5,East,8.1,-,0.00,Snow,Light Snow,90,2013-04-25 13:18:00
9:30 AM,33.1,28.0,82,29.89,6.0,East,6.9,-,0.00,Snow,Light Snow,100,2013-04-25 13:30:00
9:44 AM,33.1,28.0,82,29.90,2.0,East,9.2,-,0.00,Snow,Light Snow,100,2013-04-25 13:44:00
9:55 AM,33.1,28.9,85,29.92,2.5,East,6.9,-,0.00,Snow,Light Snow,100,2013-04-25 13:55:00
10:05 AM,33.1,28.9,85,29.90,4.0,East,8.1,-,0.00,Snow,Light Snow,100,2013-04-25 14:05:00
10:16 AM,33.1,28.9,85,29.89,8.0,East,6.9,-,0.00,,Overcast,100,2013-04-25 14:16:00
10:55 AM,35.1,30.9,85,29.91,10.0,ESE,8.1,-,0.00,,Overcast,110,2013-04-25 14:55:00
11:40 AM,37.0,32.0,82,29.89,10.0,East,8.1,-,N/A,,Overcast,90,2013-04-25 15:40:00
11:50 AM,37.4,32.0,81,29.89,10.0,East,6.9,-,N/A,,Overcast,100,2013-04-25 15:50:00
11:55 AM,37.0,32.0,82,29.91,10.0,East,8.1,-,N/A,,Overcast,90,2013-04-25 15:55:00
12:55 PM,36.0,32.0,86,29.93,8.0,Variable,4.6,-,N/A,,Overcast,0,2013-04-25 16:55:00
1:47 PM,36.0,33.1,89,29.93,2.5,NE,3.5,-,0.01,Rain,Light Rain,50,2013-04-25 17:47:00
1:55 PM,36.0,33.1,89,29.95,2.5,NE,5.8,-,0.01,,Overcast,50,2013-04-25 17:55:00
2:24 PM,36.0,33.1,89,29.95,4.0,North,4.6,-,0.00,Rain,Light Rain,10,2013-04-25 18:24:00
2:40 PM,35.1,32.0,89,29.96,1.8,WNW,9.2,-,0.02,Snow,Light Snow,300,2013-04-25 18:40:00
2:55 PM,34.0,30.9,89,30.00,1.5,WNW,9.2,-,0.03,Snow,Light Snow,290,2013-04-25 18:55:00
3:04 PM,34.0,32.0,92,29.99,1.8,WNW,9.2,-,0.01,Snow,Light Snow,300,2013-04-25 19:04:00
3:12 PM,35.1,32.0,89,29.99,3.0,WNW,9.2,-,0.01,Snow,Light Snow,290,2013-04-25 19:12:00
3:28 PM,35.1,32.0,89,30.00,9.0,WNW,9.2,-,0.01,Rain,Light Rain,300,2013-04-25 19:28:00
3:55 PM,34.0,30.9,89,30.05,10.0,WNW,15.0,24.2,0.01,,Overcast,300,2013-04-25 19:55:00
4:55 PM,35.1,30.0,82,30.09,10.0,NW,12.7,24.2,0.00,,Overcast,310,2013-04-25 20:55:00
5:55 PM,36.0,30.0,79,30.12,10.0,WNW,18.4,24.2,N/A,,Mostly Cloudy,290,2013-04-25 21:55:00
6:03 PM,36.0,30.0,79,30.10,10.0,WNW,20.7,28.8,N/A,,Mostly Cloudy,300,2013-04-25 22:03:00
6:55 PM,37.9,30.0,73,30.15,10.0,WNW,10.4,-,N/A,,Partly Cloudy,300,2013-04-25 22:55:00
7:55 PM,37.9,27.0,65,30.17,10.0,WNW,9.2,-,N/A,,Clear,290,2013-04-25 23:55:00
8:55 PM,36.0,27.0,70,30.20,10.0,WNW,3.5,-,N/A,,Clear,300,2013-04-26 00:55:00
9:55 PM,34.0,27.0,75,30.23,10.0,NW,3.5,-,N/A,,Clear,320,2013-04-26 01:55:00
10:55 PM,33.1,27.0,78,30.24,10.0,Calm,Calm,-,N/A,,Clear,0,2013-04-26 02:55:00
11:55 PM,30.9,26.1,82,30.25,10.0,SSW,4.6,-,N/A,,Clear,210,2013-04-26 03:55:00